createdAt,value
2018-12-05T00:00:17.713Z,10.6
2018-12-05T00:01:07.495Z,10.6
2018-12-05T00:01:56.776Z,10.6
2018-12-05T00:02:47.564Z,10.6
2018-12-05T00:03:37.660Z,10.6
2018-12-05T00:04:27.444Z,10.6
2018-12-05T00:05:17.804Z,10.6
2018-12-05T00:06:07.565Z,10.6
2018-12-05T00:06:57.605Z,10.6
2018-12-05T00:25:09.890Z,10.6
2018-12-05T00:25:59.146Z,10.5
2018-12-05T00:26:49.772Z,10.5
2018-12-05T00:27:39.534Z,10.5
2018-12-05T00:28:29.296Z,10.6
2018-12-05T00:29:18.541Z,10.6
2018-12-05T00:30:09.974Z,10.5
2018-12-05T00:30:59.488Z,10.6
2018-12-05T00:31:48.731Z,10.6
2018-12-05T00:32:39.623Z,10.6
2018-12-05T00:33:30.196Z,10.6
2018-12-05T00:34:19.916Z,10.5
2018-12-05T00:35:09.747Z,10.5
2018-12-05T00:35:59.746Z,10.6
2018-12-05T00:36:50.385Z,10.6
2018-12-05T00:37:39.913Z,10.6
2018-12-05T00:38:30.780Z,10.6
2018-12-05T00:39:20.815Z,10.6
2018-12-05T00:40:11.473Z,10.6
2018-12-05T00:40:59.813Z,10.6
2018-12-05T00:41:51.034Z,10.6
2018-12-05T00:42:40.584Z,10.6
2018-12-05T00:43:31.388Z,10.6
2018-12-05T00:44:20.833Z,10.6
2018-12-05T00:45:11.454Z,10.6
2018-12-05T00:46:00.707Z,10.6
2018-12-05T00:46:51.310Z,10.6
2018-12-05T00:47:39.780Z,10.6
2018-12-05T00:48:31.407Z,10.6
2018-12-05T00:49:20.692Z,10.6
2018-12-05T00:50:11.840Z,10.6
2018-12-05T00:51:01.367Z,10.6
2018-12-05T00:51:49.797Z,10.6
2018-12-05T00:52:40.176Z,10.6
2018-12-05T00:53:31.817Z,10.6
2018-12-05T00:54:21.343Z,10.6
2018-12-05T00:55:11.422Z,10.6
2018-12-05T00:56:01.471Z,10.6
2018-12-05T00:56:51.536Z,10.6
2018-12-05T00:57:40.745Z,10.6
2018-12-05T00:58:31.404Z,10.6
2018-12-05T00:59:21.907Z,10.6
2018-12-05T01:00:12.332Z,10.6
2018-12-05T01:01:01.549Z,10.6
2018-12-05T01:01:51.589Z,10.6
2018-12-05T01:02:41.946Z,10.6
2018-12-05T01:03:31.949Z,10.6
2018-12-05T01:04:22.326Z,10.6
2018-12-05T01:05:14.101Z,10.6
2018-12-05T01:06:02.354Z,10.6
2018-12-05T01:06:51.864Z,10.6
2018-12-05T01:07:42.251Z,10.6
2018-12-05T01:08:33.165Z,10.6
2018-12-05T01:09:22.581Z,10.6
2018-12-05T01:10:12.161Z,10.6
2018-12-05T01:11:02.578Z,10.6
2018-12-05T01:11:53.406Z,10.6
2018-12-05T01:12:42.556Z,10.6
2018-12-05T01:13:32.838Z,10.6
2018-12-05T01:14:22.645Z,10.6
2018-12-05T01:15:13.943Z,10.6
2018-12-05T01:16:02.736Z,10.6
2018-12-05T01:16:53.408Z,10.6
2018-12-05T01:17:42.664Z,10.6
2018-12-05T01:18:33.522Z,10.6
2018-12-05T01:19:24.055Z,10.6
2018-12-05T01:20:12.210Z,10.6
2018-12-05T01:21:03.700Z,10.6
2018-12-05T01:21:53.730Z,10.6
2018-12-05T01:22:44.045Z,10.6
2018-12-05T01:23:34.132Z,10.6
2018-12-05T01:24:22.915Z,10.6
2018-12-05T01:25:13.130Z,10.6
2018-12-05T01:26:02.881Z,10.6
2018-12-05T01:26:52.730Z,10.6
2018-12-05T01:27:43.575Z,10.6
2018-12-05T01:28:33.355Z,10.6
2018-12-05T01:29:23.911Z,10.6
2018-12-05T01:30:14.539Z,10.6
2018-12-05T01:31:03.477Z,10.6
2018-12-05T01:31:53.552Z,10.6
2018-12-05T01:32:43.964Z,10.6
2018-12-05T01:33:33.997Z,10.6
2018-12-05T01:34:24.905Z,10.6
2018-12-05T01:35:14.617Z,10.6
2018-12-05T01:36:03.889Z,10.6
2018-12-05T01:36:53.959Z,10.6
2018-12-05T01:37:43.959Z,10.6
2018-12-05T01:38:34.302Z,10.6
2018-12-05T01:39:24.922Z,10.6
2018-12-05T01:40:14.679Z,10.6
2018-12-05T01:41:04.819Z,10.6
2018-12-05T01:41:54.017Z,10.6
2018-12-05T01:42:44.592Z,10.6
2018-12-05T01:43:34.401Z,10.6
2018-12-05T01:44:24.462Z,10.6
2018-12-05T01:45:15.264Z,10.6
2018-12-05T01:46:05.596Z,10.6
2018-12-05T01:46:55.111Z,10.6
2018-12-05T01:47:45.291Z,10.6
2018-12-05T01:48:34.998Z,10.6
2018-12-05T01:49:25.121Z,10.6
2018-12-05T01:50:14.552Z,10.6
2018-12-05T01:51:05.671Z,10.6
2018-12-05T01:51:55.064Z,10.6
2018-12-05T01:52:46.353Z,10.6
2018-12-05T01:53:36.177Z,10.6
2018-12-05T01:54:25.148Z,10.6
2018-12-05T01:55:14.343Z,10.6
2018-12-05T01:56:05.741Z,10.6
2018-12-05T01:56:56.598Z,10.6
2018-12-05T01:57:46.300Z,10.6
2018-12-05T01:58:35.208Z,10.6
2018-12-05T01:59:25.733Z,10.6
2018-12-05T02:00:15.870Z,10.6
2018-12-05T02:01:05.341Z,10.6
2018-12-05T02:01:56.223Z,10.6
2018-12-05T02:02:46.571Z,10.6
2018-12-05T02:03:36.901Z,10.6
2018-12-05T02:04:25.418Z,10.6
2018-12-05T02:05:15.845Z,10.6
2018-12-05T02:06:05.625Z,10.6
2018-12-05T02:06:57.595Z,10.6
2018-12-05T02:07:47.133Z,10.6
2018-12-05T02:08:36.174Z,10.6
2018-12-05T02:09:27.012Z,10.6
2018-12-05T02:10:16.818Z,10.6
2018-12-05T02:11:07.323Z,10.6
2018-12-05T02:11:57.218Z,10.6
2018-12-05T02:12:46.426Z,10.6
2018-12-05T02:13:36.990Z,10.6
2018-12-05T02:14:26.880Z,10.6
2018-12-05T02:15:17.087Z,10.6
2018-12-05T02:16:07.027Z,10.6
2018-12-05T02:16:57.497Z,10.6
2018-12-05T02:17:46.722Z,10.6
2018-12-05T02:18:37.320Z,10.6
2018-12-05T02:19:27.399Z,10.6
2018-12-05T02:20:17.767Z,10.6
2018-12-05T02:21:08.454Z,10.6
2018-12-05T02:21:57.835Z,10.6
2018-12-05T02:22:46.539Z,10.6
2018-12-05T02:23:37.390Z,10.6
2018-12-05T02:24:26.643Z,10.6
2018-12-05T02:25:18.310Z,10.6
2018-12-05T02:26:07.932Z,10.6
2018-12-05T02:26:57.877Z,10.6
2018-12-05T02:27:47.247Z,10.6
2018-12-05T02:28:38.009Z,10.6
2018-12-05T02:29:28.624Z,10.6
2018-12-05T02:30:18.304Z,10.6
2018-12-05T02:31:08.535Z,10.6
2018-12-05T02:31:58.527Z,10.6
2018-12-05T02:32:48.367Z,10.6
2018-12-05T02:33:38.954Z,10.6
2018-12-05T02:34:28.559Z,10.6
2018-12-05T02:35:17.936Z,10.6
2018-12-05T02:36:08.836Z,10.6
2018-12-05T02:36:58.663Z,10.6
2018-12-05T02:37:48.104Z,10.6
2018-12-05T02:38:38.204Z,10.6
2018-12-05T02:39:28.603Z,10.6
2018-12-05T02:40:18.641Z,10.6
2018-12-05T02:41:08.868Z,10.6
2018-12-05T02:41:58.560Z,10.6
2018-12-05T02:42:47.736Z,10.6
2018-12-05T02:43:38.790Z,10.6
2018-12-05T02:44:29.778Z,10.6
2018-12-05T02:45:19.250Z,10.6
2018-12-05T02:46:09.811Z,10.6
2018-12-05T02:46:58.978Z,10.6
2018-12-05T02:47:49.990Z,10.6
2018-12-05T02:48:38.827Z,10.6
2018-12-05T02:49:28.355Z,10.6
2018-12-05T02:50:19.795Z,10.6
2018-12-05T02:51:08.480Z,10.6
2018-12-05T02:51:59.114Z,10.6
2018-12-05T02:52:49.398Z,10.6
2018-12-05T02:53:39.831Z,10.6
2018-12-05T02:54:29.953Z,10.6
2018-12-05T02:55:20.180Z,10.6
2018-12-05T02:56:13.901Z,10.6
2018-12-05T02:56:59.882Z,10.6
2018-12-05T02:57:49.430Z,10.6
2018-12-05T02:58:40.126Z,10.6
2018-12-05T02:59:29.998Z,10.6
2018-12-05T03:00:21.723Z,10.6
2018-12-05T03:01:09.839Z,10.6
2018-12-05T03:02:00.042Z,10.6
2018-12-05T03:02:49.861Z,10.6
2018-12-05T03:03:39.330Z,10.6
2018-12-05T03:04:30.249Z,10.6
2018-12-05T03:05:20.429Z,10.6
2018-12-05T03:06:10.445Z,10.6
2018-12-05T03:07:00.409Z,10.6
2018-12-05T03:07:49.918Z,10.6
2018-12-05T03:08:41.081Z,10.6
2018-12-05T03:09:31.773Z,10.6
2018-12-05T03:10:21.239Z,10.6
2018-12-05T03:11:10.958Z,10.6
2018-12-05T03:12:01.019Z,10.6
2018-12-05T03:12:51.336Z,10.6
2018-12-05T03:13:41.141Z,10.6
2018-12-05T03:14:30.890Z,10.6
2018-12-05T03:15:20.403Z,10.6
2018-12-05T03:16:10.498Z,10.6
2018-12-05T03:17:01.343Z,10.6
2018-12-05T03:17:51.942Z,10.6
2018-12-05T03:18:41.218Z,10.6
2018-12-05T03:19:31.315Z,10.6
2018-12-05T03:20:21.582Z,10.6
2018-12-05T03:21:11.950Z,10.6
2018-12-05T03:22:02.280Z,10.6
2018-12-05T03:22:52.041Z,10.6
2018-12-05T03:23:42.248Z,10.6
2018-12-05T03:24:32.195Z,10.6
2018-12-05T03:25:21.962Z,10.6
2018-12-05T03:26:12.322Z,10.6
2018-12-05T03:27:01.782Z,10.6
2018-12-05T03:27:52.400Z,10.6
2018-12-05T03:28:42.144Z,10.6
2018-12-05T03:29:32.719Z,10.6
2018-12-05T03:30:22.990Z,10.6
2018-12-05T03:31:12.805Z,10.6
2018-12-05T03:32:02.599Z,10.6
2018-12-05T03:32:52.900Z,10.6
2018-12-05T03:33:43.015Z,10.6
2018-12-05T03:34:32.832Z,10.6
2018-12-05T03:35:24.073Z,10.6
2018-12-05T03:36:12.409Z,10.6
2018-12-05T03:37:02.816Z,10.6
2018-12-05T03:37:52.225Z,10.6
2018-12-05T03:38:42.664Z,10.6
2018-12-05T03:39:33.194Z,10.6
2018-12-05T03:40:22.752Z,10.6
2018-12-05T03:41:12.849Z,10.6
2018-12-05T03:42:03.126Z,10.6
2018-12-05T03:42:53.104Z,10.6
2018-12-05T03:43:44.004Z,10.6
2018-12-05T03:44:33.547Z,10.6
2018-12-05T03:45:23.011Z,10.6
2018-12-05T03:46:13.095Z,10.6
2018-12-05T03:47:03.498Z,10.6
2018-12-05T03:47:53.757Z,10.6
2018-12-05T03:48:42.463Z,10.6
2018-12-05T03:49:33.348Z,10.6
2018-12-05T03:50:22.593Z,10.6
2018-12-05T03:51:14.016Z,10.6
2018-12-05T03:52:04.051Z,10.6
2018-12-05T03:52:53.853Z,10.6
2018-12-05T03:53:44.421Z,10.6
2018-12-05T03:54:33.988Z,10.6
2018-12-05T03:55:26.153Z,10.6
2018-12-05T03:56:14.115Z,10.6
2018-12-05T03:57:04.440Z,10.6
2018-12-05T03:57:53.336Z,10.6
2018-12-05T03:58:44.008Z,10.6
2018-12-05T03:59:33.717Z,10.6
2018-12-05T04:00:24.086Z,10.6
2018-12-05T04:01:14.355Z,10.6
2018-12-05T04:02:04.258Z,10.6
2018-12-05T04:02:55.050Z,10.6
2018-12-05T04:03:43.718Z,10.6
2018-12-05T04:04:35.145Z,10.6
2018-12-05T04:05:24.434Z,10.6
2018-12-05T04:06:14.766Z,10.6
2018-12-05T04:07:06.036Z,10.6
2018-12-05T04:07:54.889Z,10.6
2018-12-05T04:08:44.628Z,10.6
2018-12-05T04:09:36.563Z,10.6
2018-12-05T04:10:24.506Z,10.6
2018-12-05T04:11:15.497Z,10.6
2018-12-05T04:12:05.077Z,10.6
2018-12-05T04:12:56.122Z,10.6
2018-12-05T04:13:44.455Z,10.6
2018-12-05T04:14:35.210Z,10.6
2018-12-05T04:15:24.851Z,10.6
2018-12-05T04:16:15.732Z,10.6
2018-12-05T04:17:05.902Z,10.6
2018-12-05T04:17:55.721Z,10.6
2018-12-05T04:18:46.218Z,10.6
2018-12-05T04:19:35.940Z,10.6
2018-12-05T04:20:25.403Z,10.6
2018-12-05T04:21:15.154Z,10.6
2018-12-05T04:22:06.359Z,10.6
2018-12-05T04:22:55.846Z,10.6
2018-12-05T04:23:46.329Z,10.6
2018-12-05T04:24:36.034Z,10.6
2018-12-05T04:25:25.689Z,10.6
2018-12-05T04:26:16.131Z,10.6
2018-12-05T04:27:05.916Z,10.6
2018-12-05T04:27:56.244Z,10.6
2018-12-05T04:28:46.006Z,10.6
2018-12-05T04:29:36.051Z,10.6
2018-12-05T04:30:27.180Z,10.6
2018-12-05T04:31:16.719Z,10.6
2018-12-05T04:32:06.239Z,10.6
2018-12-05T04:32:56.874Z,10.6
2018-12-05T04:33:46.336Z,10.6
2018-12-05T04:34:36.131Z,10.6
2018-12-05T04:35:26.541Z,10.6
2018-12-05T04:36:17.381Z,10.6
2018-12-05T04:37:06.943Z,10.6
2018-12-05T04:54:21.808Z,10.5
2018-12-05T04:55:09.765Z,10.6
2018-12-05T04:55:59.758Z,10.6
2018-12-05T04:56:49.872Z,10.6
2018-12-05T04:57:40.707Z,10.6
2018-12-05T04:58:30.788Z,10.6
2018-12-05T04:59:23.482Z,10.6
2018-12-05T05:00:10.371Z,10.6
2018-12-05T05:00:59.821Z,10.6
2018-12-05T05:01:50.714Z,10.6
2018-12-05T05:02:40.264Z,10.6
2018-12-05T05:03:30.542Z,10.6
2018-12-05T05:04:21.445Z,10.6
2018-12-05T05:05:10.383Z,10.6
2018-12-05T05:06:00.602Z,10.6
2018-12-05T05:06:50.857Z,10.6
2018-12-05T05:07:41.147Z,10.6
2018-12-05T05:08:31.169Z,10.6
2018-12-05T05:09:21.792Z,10.6
2018-12-05T05:10:10.447Z,10.6
2018-12-05T05:11:01.313Z,10.6
2018-12-05T05:11:51.162Z,10.6
2018-12-05T05:12:40.862Z,10.6
2018-12-05T05:13:31.336Z,10.6
2018-12-05T05:14:20.451Z,10.6
2018-12-05T05:15:11.338Z,10.6
2018-12-05T05:16:01.654Z,10.6
2018-12-05T05:16:51.201Z,10.6
2018-12-05T05:17:41.228Z,10.6
2018-12-05T05:18:31.618Z,10.6
2018-12-05T05:19:22.886Z,10.6
2018-12-05T05:20:13.926Z,10.6
2018-12-05T05:21:01.476Z,10.6
2018-12-05T05:21:51.796Z,10.6
2018-12-05T05:22:42.264Z,10.6
2018-12-05T05:23:32.221Z,10.6
2018-12-05T05:24:22.473Z,10.6
2018-12-05T05:25:13.185Z,10.6
2018-12-05T05:26:01.818Z,10.6
2018-12-05T05:26:52.386Z,10.6
2018-12-05T05:27:50.041Z,10.6
2018-12-05T05:28:32.211Z,10.6
2018-12-05T05:29:22.822Z,10.6
2018-12-05T05:30:12.956Z,10.6
2018-12-05T05:31:01.823Z,10.6
2018-12-05T05:31:53.073Z,10.6
2018-12-05T05:32:41.402Z,10.6
2018-12-05T05:33:32.698Z,10.6
2018-12-05T05:34:22.158Z,10.6
2018-12-05T05:35:12.937Z,10.6
2018-12-05T05:36:02.480Z,10.6
2018-12-05T05:36:52.820Z,10.6
2018-12-05T05:37:43.153Z,10.6
2018-12-05T05:38:32.700Z,10.6
2018-12-05T05:39:23.252Z,10.6
2018-12-05T05:40:14.262Z,10.6
2018-12-05T05:41:03.892Z,10.6
2018-12-05T05:41:53.202Z,10.6
2018-12-05T05:42:43.185Z,10.6
2018-12-05T05:43:33.017Z,10.6
2018-12-05T05:44:23.315Z,10.6
2018-12-05T05:45:14.418Z,10.6
2018-12-05T05:46:04.227Z,10.6
2018-12-05T05:46:53.814Z,10.6
2018-12-05T05:47:44.352Z,10.6
2018-12-05T05:48:33.569Z,10.6
2018-12-05T05:49:23.347Z,10.6
2018-12-05T05:50:13.957Z,10.6
2018-12-05T05:51:03.572Z,10.6
2018-12-05T05:51:54.071Z,10.6
2018-12-05T05:52:43.854Z,10.6
2018-12-05T05:53:33.919Z,10.6
2018-12-05T05:54:24.263Z,10.6
2018-12-05T05:55:14.614Z,10.6
2018-12-05T05:56:04.151Z,10.6
2018-12-05T05:56:54.197Z,10.6
2018-12-05T05:57:44.502Z,10.6
2018-12-05T05:58:34.004Z,10.6
2018-12-05T05:59:24.664Z,10.6
2018-12-05T06:00:14.661Z,10.6
2018-12-05T06:01:04.495Z,10.6
2018-12-05T06:01:55.054Z,10.6
2018-12-05T06:02:44.079Z,10.6
2018-12-05T06:03:34.942Z,10.6
2018-12-05T06:04:25.211Z,10.6
2018-12-05T06:05:15.011Z,10.6
2018-12-05T06:06:05.371Z,10.6
2018-12-05T06:06:54.256Z,10.6
2018-12-05T06:07:44.904Z,10.6
2018-12-05T06:08:35.194Z,10.6
2018-12-05T06:09:25.547Z,10.6
2018-12-05T06:10:15.332Z,10.6
2018-12-05T06:11:05.481Z,10.6
2018-12-05T06:11:56.074Z,10.6
2018-12-05T06:12:45.808Z,10.6
2018-12-05T06:13:35.276Z,10.6
2018-12-05T06:14:25.707Z,10.6
2018-12-05T06:15:15.388Z,10.6
2018-12-05T06:16:06.286Z,10.6
2018-12-05T06:16:55.499Z,10.6
2018-12-05T06:17:45.568Z,10.6
2018-12-05T06:18:35.901Z,10.6
2018-12-05T06:19:26.308Z,10.6
2018-12-05T06:20:16.021Z,10.6
2018-12-05T06:21:05.908Z,10.6
2018-12-05T06:21:56.166Z,10.6
2018-12-05T06:22:46.170Z,10.6
2018-12-05T06:23:36.530Z,10.7
2018-12-05T06:24:26.095Z,10.7
2018-12-05T06:25:16.172Z,10.7
2018-12-05T06:26:06.455Z,10.7
2018-12-05T06:26:56.245Z,10.7
2018-12-05T06:27:46.290Z,10.7
2018-12-05T06:28:36.890Z,10.6
2018-12-05T06:29:27.169Z,10.6
2018-12-05T06:30:16.397Z,10.6
2018-12-05T06:31:06.717Z,10.7
2018-12-05T06:31:56.490Z,10.7
2018-12-05T06:32:46.277Z,10.7
2018-12-05T06:33:38.932Z,10.6
2018-12-05T06:34:27.530Z,10.7
2018-12-05T06:35:17.016Z,10.8
2018-12-05T06:36:06.897Z,10.8
2018-12-05T06:36:56.917Z,10.8
2018-12-05T06:37:46.887Z,10.8
2018-12-05T06:38:37.289Z,10.8
2018-12-05T06:39:26.742Z,10.8
2018-12-05T06:40:16.544Z,10.8
2018-12-05T06:41:07.739Z,10.8
2018-12-05T06:41:57.226Z,10.8
2018-12-05T06:42:47.247Z,10.9
2018-12-05T06:43:37.866Z,10.8
2018-12-05T06:44:27.916Z,10.8
2018-12-05T06:45:18.069Z,10.8
2018-12-05T06:46:06.915Z,10.8
2018-12-05T06:46:58.332Z,10.8
2018-12-05T06:47:47.859Z,10.8
2018-12-05T06:48:38.765Z,10.8
2018-12-05T06:49:28.304Z,10.7
2018-12-05T06:50:18.486Z,10.7
2018-12-05T06:51:08.159Z,10.8
2018-12-05T06:51:56.836Z,10.8
2018-12-05T06:52:47.661Z,10.7
2018-12-05T06:53:39.396Z,10.7
2018-12-05T06:54:28.905Z,10.7
2018-12-05T06:55:18.740Z,10.8
2018-12-05T06:56:08.743Z,10.7
2018-12-05T06:56:58.218Z,10.7
2018-12-05T06:57:48.542Z,10.7
2018-12-05T06:58:38.588Z,10.7
2018-12-05T06:59:29.203Z,10.8
2018-12-05T07:00:18.226Z,10.8
2018-12-05T07:01:08.807Z,10.8
2018-12-05T07:01:58.940Z,10.8
2018-12-05T07:02:48.876Z,10.7
2018-12-05T07:03:38.335Z,10.8
2018-12-05T07:04:28.734Z,10.8
2018-12-05T07:05:19.342Z,10.8
2018-12-05T07:06:09.128Z,10.8
2018-12-05T07:06:59.421Z,10.8
2018-12-05T07:07:49.542Z,10.8
2018-12-05T07:08:39.310Z,10.8
2018-12-05T07:09:28.049Z,10.8
2018-12-05T07:10:19.140Z,10.8
2018-12-05T07:11:09.490Z,10.8
2018-12-05T07:11:59.502Z,10.8
2018-12-05T07:12:49.825Z,10.8
2018-12-05T07:13:40.219Z,10.8
2018-12-05T07:14:29.477Z,10.8
2018-12-05T07:15:19.777Z,10.8
2018-12-05T07:16:09.280Z,10.8
2018-12-05T07:16:59.609Z,10.8
2018-12-05T07:17:49.702Z,10.8
2018-12-05T07:18:40.839Z,10.8
2018-12-05T07:19:30.586Z,10.8
2018-12-05T07:20:20.011Z,10.8
2018-12-05T07:21:10.426Z,10.8
2018-12-05T07:21:59.961Z,10.8
2018-12-05T07:22:50.237Z,10.8
2018-12-05T07:23:40.608Z,10.8
2018-12-05T07:24:29.877Z,10.8
2018-12-05T07:25:20.498Z,10.8
2018-12-05T07:26:10.360Z,10.8
2018-12-05T07:27:00.374Z,10.8
2018-12-05T07:27:50.299Z,10.8
2018-12-05T07:28:40.720Z,10.8
2018-12-05T07:29:31.009Z,10.9
2018-12-05T07:30:19.961Z,10.9
2018-12-05T07:31:10.590Z,10.9
2018-12-05T07:32:00.655Z,10.9
2018-12-05T07:32:50.846Z,10.9
2018-12-05T07:33:41.313Z,10.9
2018-12-05T07:34:31.653Z,10.9
2018-12-05T07:35:21.120Z,10.8
2018-12-05T07:36:10.365Z,10.8
2018-12-05T07:37:00.171Z,10.8
2018-12-05T07:37:50.453Z,10.8
2018-12-05T07:38:41.419Z,10.8
2018-12-05T07:39:30.904Z,10.8
2018-12-05T07:40:21.783Z,10.8
2018-12-05T07:41:11.798Z,10.9
2018-12-05T07:42:01.957Z,10.9
2018-12-05T07:42:51.538Z,10.9
2018-12-05T07:43:41.708Z,10.8
2018-12-05T07:44:32.035Z,10.9
2018-12-05T07:45:21.255Z,10.8
2018-12-05T07:46:11.597Z,10.8
2018-12-05T07:47:02.214Z,10.9
2018-12-05T07:47:52.081Z,10.9
2018-12-05T07:48:42.032Z,10.9
2018-12-05T07:49:32.452Z,10.9
2018-12-05T07:50:24.627Z,10.9
2018-12-05T07:51:12.219Z,10.9
2018-12-05T07:52:02.544Z,10.9
2018-12-05T07:52:52.417Z,11
2018-12-05T07:53:41.949Z,11.1
2018-12-05T07:54:31.914Z,11.1
2018-12-05T07:55:22.316Z,11.1
2018-12-05T07:56:12.837Z,11.1
2018-12-05T07:57:02.332Z,11.1
2018-12-05T07:57:52.662Z,11.1
2018-12-05T07:58:42.734Z,11.1
2018-12-05T07:59:33.072Z,11.1
2018-12-05T08:00:23.077Z,11.1
2018-12-05T08:01:12.363Z,11.2
2018-12-05T08:02:03.041Z,11.2
2018-12-05T08:02:53.021Z,11.3
2018-12-05T08:03:43.021Z,11.3
2018-12-05T08:04:32.985Z,11.6
2018-12-05T08:05:23.494Z,11.7
2018-12-05T08:06:13.614Z,11.6
2018-12-05T08:07:03.576Z,11.6
2018-12-05T08:07:53.351Z,11.6
2018-12-05T08:08:44.079Z,11.8
2018-12-05T08:09:33.526Z,11.9
2018-12-05T08:10:23.678Z,11.9
2018-12-05T08:11:13.538Z,11.8
2018-12-05T08:12:03.241Z,11.8
2018-12-05T08:12:52.938Z,11.8
2018-12-05T08:13:43.480Z,11.7
2018-12-05T08:14:33.562Z,11.6
2018-12-05T08:15:24.158Z,11.7
2018-12-05T08:16:13.639Z,11.8
2018-12-05T08:17:03.533Z,11.8
2018-12-05T08:17:54.338Z,11.8
2018-12-05T08:18:43.286Z,11.8
2018-12-05T08:19:34.465Z,11.9
2018-12-05T08:20:24.507Z,12.1
2018-12-05T08:21:14.068Z,12.3
2018-12-05T08:22:04.105Z,12.4
2018-12-05T08:22:54.684Z,12.4
2018-12-05T08:23:44.536Z,12.4
2018-12-05T08:24:34.817Z,12.6
2018-12-05T08:25:24.310Z,12.6
2018-12-05T08:26:14.695Z,12.6
2018-12-05T08:27:04.690Z,12.7
2018-12-05T08:27:54.279Z,12.7
2018-12-05T08:28:45.359Z,12.7
2018-12-05T08:29:35.139Z,12.7
2018-12-05T08:30:24.927Z,12.8
2018-12-05T08:31:15.341Z,12.8
2018-12-05T08:32:06.057Z,12.8
2018-12-05T08:32:54.844Z,12.7
2018-12-05T08:33:44.601Z,12.7
2018-12-05T08:34:35.764Z,12.6
2018-12-05T08:35:25.587Z,12.6
2018-12-05T08:36:15.354Z,12.6
2018-12-05T08:37:05.747Z,12.6
2018-12-05T08:37:54.883Z,12.6
2018-12-05T08:38:45.519Z,12.6
2018-12-05T08:39:35.835Z,12.4
2018-12-05T08:40:26.130Z,12.5
2018-12-05T08:41:15.690Z,12.5
2018-12-05T08:42:04.918Z,12.5
2018-12-05T08:42:55.863Z,12.4
2018-12-05T08:43:48.015Z,12.4
2018-12-05T08:44:36.175Z,12.2
2018-12-05T08:45:25.130Z,12.3
2018-12-05T08:46:16.552Z,12.4
2018-12-05T08:47:05.583Z,12.4
2018-12-05T08:47:56.690Z,12.5
2018-12-05T08:48:46.187Z,12.4
2018-12-05T08:49:36.267Z,12.5
2018-12-05T08:50:25.600Z,12.6
2018-12-05T08:51:15.857Z,12.6
2018-12-05T08:52:05.877Z,12.6
2018-12-05T08:52:56.759Z,12.6
2018-12-05T09:08:44.466Z,12.6
2018-12-05T09:09:34.334Z,12.6
2018-12-05T09:10:24.055Z,12.6
2018-12-05T09:11:13.856Z,12.6
2018-12-05T09:12:04.491Z,12.6
2018-12-05T09:12:54.774Z,12.6
2018-12-05T09:13:44.398Z,12.6
2018-12-05T09:14:37.416Z,12.6
2018-12-05T09:15:25.077Z,12.6
2018-12-05T09:16:15.033Z,12.6
2018-12-05T09:17:04.789Z,12.6
2018-12-05T09:17:55.086Z,12.6
2018-12-05T09:18:44.394Z,12.6
2018-12-05T09:19:34.415Z,12.6
2018-12-05T09:20:24.198Z,12.6
2018-12-05T09:21:16.043Z,12.6
2018-12-05T09:22:04.856Z,12.6
2018-12-05T09:22:56.028Z,12.7
2018-12-05T09:23:44.963Z,12.7
2018-12-05T09:24:35.038Z,12.7
2018-12-05T09:25:25.453Z,12.7
2018-12-05T09:26:15.711Z,12.7
2018-12-05T09:27:04.941Z,12.6
2018-12-05T09:27:55.838Z,12.6
2018-12-05T09:28:44.825Z,12.6
2018-12-05T09:29:35.180Z,12.7
2018-12-05T09:30:25.170Z,12.6
2018-12-05T09:31:15.293Z,12.6
2018-12-05T09:32:05.549Z,12.6
2018-12-05T09:32:57.733Z,12.6
2018-12-05T09:33:46.199Z,12.6
2018-12-05T09:34:35.717Z,12.6
2018-12-05T09:35:26.125Z,12.6
2018-12-05T09:36:15.864Z,12.6
2018-12-05T09:37:06.804Z,12.6
2018-12-05T09:37:56.809Z,12.6
2018-12-05T09:38:45.999Z,12.6
2018-12-05T09:39:37.141Z,12.6
2018-12-05T09:40:26.373Z,12.6
2018-12-05T09:41:16.185Z,12.6
2018-12-05T09:42:06.537Z,12.6
2018-12-05T09:42:56.849Z,12.4
2018-12-05T09:43:47.271Z,12.5
2018-12-05T09:44:37.021Z,12.6
2018-12-05T09:45:26.214Z,12.6
2018-12-05T09:46:16.830Z,12.6
2018-12-05T09:47:06.884Z,12.5
2018-12-05T09:47:57.788Z,12.5
2018-12-05T09:48:46.429Z,12.5
2018-12-05T09:49:37.159Z,12.6
2018-12-05T09:50:27.403Z,12.3
2018-12-05T09:51:17.136Z,12.4
2018-12-05T09:52:07.226Z,12.4
2018-12-05T09:52:57.671Z,12.4
2018-12-05T09:53:47.459Z,12.5
2018-12-05T09:54:37.708Z,12.4
2018-12-05T09:55:27.719Z,12.3
2018-12-05T09:56:16.684Z,12.4
2018-12-05T09:57:07.303Z,12.4
2018-12-05T09:57:57.333Z,12.4
2018-12-05T09:58:47.198Z,12.3
2018-12-05T09:59:37.433Z,12.3
2018-12-05T10:00:27.893Z,12.4
2018-12-05T10:01:17.856Z,12.4
2018-12-05T10:02:07.659Z,12.3
2018-12-05T10:02:57.998Z,12.4
2018-12-05T10:03:47.444Z,12.4
2018-12-05T10:04:38.096Z,12.3
2018-12-05T10:05:28.210Z,12.3
2018-12-05T10:06:17.650Z,12.3
2018-12-05T10:07:07.426Z,12.4
2018-12-05T10:07:58.545Z,12.4
2018-12-05T10:08:48.090Z,12.4
2018-12-05T10:09:38.707Z,12.4
2018-12-05T10:10:28.345Z,12.4
2018-12-05T10:11:17.737Z,12.4
2018-12-05T10:12:08.417Z,12.4
2018-12-05T10:12:58.254Z,12.5
2018-12-05T10:13:48.251Z,12.5
2018-12-05T10:14:38.267Z,12.5
2018-12-05T10:15:27.529Z,12.5
2018-12-05T10:16:18.131Z,12.5
2018-12-05T10:17:08.472Z,12.4
2018-12-05T10:17:58.827Z,12.4
2018-12-05T10:18:48.829Z,12.4
2018-12-05T10:19:39.749Z,12.4
2018-12-05T10:20:27.776Z,12.3
2018-12-05T10:21:18.969Z,12.1
2018-12-05T10:22:08.876Z,12.2
2018-12-05T10:22:58.594Z,12.3
2018-12-05T10:23:49.402Z,12.4
2018-12-05T10:24:39.459Z,12.4
2018-12-05T10:25:28.968Z,12.4
2018-12-05T10:26:19.466Z,12.4
2018-12-05T10:27:09.637Z,12.4
2018-12-05T10:27:59.126Z,12.4
2018-12-05T10:28:50.569Z,12.4
2018-12-05T10:29:39.881Z,12.4
2018-12-05T10:30:29.822Z,12.4
2018-12-05T10:31:20.233Z,12.4
2018-12-05T10:32:11.992Z,12.5
2018-12-05T10:32:59.776Z,12.4
2018-12-05T10:33:49.811Z,12.4
2018-12-05T10:34:40.267Z,12.4
2018-12-05T10:35:29.886Z,12.4
2018-12-05T10:36:19.480Z,12.4
2018-12-05T10:37:10.364Z,12.4
2018-12-05T10:38:01.683Z,12.4
2018-12-05T10:38:49.882Z,12.4
2018-12-05T10:39:40.811Z,12.4
2018-12-05T10:40:30.585Z,12.4
2018-12-05T10:41:20.472Z,12.4
2018-12-05T10:42:09.857Z,12.4
2018-12-05T10:42:59.955Z,12.4
2018-12-05T10:43:50.467Z,12.4
2018-12-05T10:44:41.170Z,12.4
2018-12-05T10:45:31.500Z,12.4
2018-12-05T10:46:20.404Z,12.4
2018-12-05T10:47:10.997Z,12.4
2018-12-05T10:48:00.789Z,12.4
2018-12-05T10:48:51.202Z,12.4
2018-12-05T10:49:41.209Z,12.4
2018-12-05T10:50:31.549Z,12.4
2018-12-05T10:51:21.891Z,12.4
2018-12-05T10:52:11.985Z,12.4
2018-12-05T10:53:01.130Z,12.4
2018-12-05T10:53:51.444Z,12.4
2018-12-05T10:54:42.179Z,12.3
2018-12-05T10:55:31.941Z,12.3
2018-12-05T10:56:20.848Z,12.4
2018-12-05T10:57:11.693Z,12.4
2018-12-05T10:58:02.107Z,12.4
2018-12-05T10:58:51.293Z,12.4
2018-12-05T10:59:41.074Z,12.4
2018-12-05T11:00:32.221Z,12.4
2018-12-05T11:01:21.420Z,12.4
2018-12-05T11:02:12.008Z,12.4
2018-12-05T11:03:02.895Z,12.4
2018-12-05T11:03:52.166Z,12.4
2018-12-05T11:04:42.778Z,12.4
2018-12-05T11:05:31.705Z,12.4
2018-12-05T11:06:22.568Z,12.4
2018-12-05T11:07:12.103Z,12.4
2018-12-05T11:08:02.943Z,12.4
2018-12-05T11:08:52.499Z,12.4
2018-12-05T11:09:42.903Z,12.5
2018-12-05T11:10:32.028Z,12.5
2018-12-05T11:11:22.428Z,12.5
2018-12-05T11:12:12.160Z,12.4
2018-12-05T11:13:02.483Z,12.4
2018-12-05T11:13:53.452Z,12.4
2018-12-05T11:14:43.157Z,12.4
2018-12-05T11:15:33.515Z,12.4
2018-12-05T11:16:23.509Z,12.4
2018-12-05T11:17:13.381Z,12.5
2018-12-05T11:18:03.416Z,12.5
2018-12-05T11:18:53.175Z,12.5
2018-12-05T11:19:42.965Z,12.5
2018-12-05T11:20:33.628Z,12.5
2018-12-05T11:21:23.859Z,12.4
2018-12-05T11:22:14.059Z,12.4
2018-12-05T11:23:03.741Z,12.5
2018-12-05T11:23:55.214Z,12.4
2018-12-05T11:24:44.086Z,12.4
2018-12-05T11:25:32.882Z,12.4
2018-12-05T11:26:23.484Z,12.4
2018-12-05T11:27:12.998Z,12.4
2018-12-05T11:28:03.649Z,12.5
2018-12-05T11:28:53.384Z,12.4
2018-12-05T11:29:44.174Z,12.3
2018-12-05T11:30:33.836Z,12.1
2018-12-05T11:31:22.707Z,12.1
2018-12-05T11:32:13.823Z,12.3
2018-12-05T11:33:03.910Z,12.3
2018-12-05T11:33:54.214Z,12.3
2018-12-05T11:34:42.579Z,12.4
2018-12-05T11:35:33.987Z,12.4
2018-12-05T11:36:24.177Z,12.4
2018-12-05T11:37:14.700Z,12.4
2018-12-05T11:38:04.757Z,12.4
2018-12-05T11:38:55.090Z,12.4
2018-12-05T11:39:44.077Z,12.4
2018-12-05T11:40:34.674Z,12.4
2018-12-05T11:41:24.699Z,12.4
2018-12-05T11:42:14.602Z,12.4
2018-12-05T11:43:04.410Z,12.4
2018-12-05T11:43:54.884Z,12.4
2018-12-05T11:44:45.297Z,12.4
2018-12-05T11:45:34.996Z,12.4
2018-12-05T11:46:24.246Z,12.4
2018-12-05T11:47:14.442Z,12.4
2018-12-05T11:48:04.862Z,12.4
2018-12-05T11:48:54.664Z,12.4
2018-12-05T11:49:44.819Z,12.4
2018-12-05T11:50:34.499Z,12.4
2018-12-05T11:51:24.224Z,12.4
2018-12-05T11:52:15.325Z,12.4
2018-12-05T11:53:05.095Z,12.4
2018-12-05T11:53:55.893Z,12.4
2018-12-05T11:54:45.506Z,12.4